METAR stanice u blizini

 

LYBE - Beograd / Surčin, Srbija
Ažurirano: 25/01/2020 08:00
Mist, Delimično oblačno
Mist, Delimično oblačno
 Pravac vetra JJI
Vetar: JJI 4 km/h
Temperatura: -4°C
Tačka rose: -5°C
Vlažnost: 93%
Pritisak: 1025 hPa
Pregled: Mist
Oblaci: Partly Cloudy
Vidljivost: 2 km
2020/01/25 07:00 LYBE 250700Z 16002KT 1500 BR NSC M04/M05 Q1025 NOSIG
LYBT - Beograd / Batajnica, Srbija
Ažurirano: 25/01/2020 08:00
Mist, Delimično oblačno
Mist, Delimično oblačno
 Pravac vetra JI
Vetar: JI 4 km/h
Temperatura: -6°C
Tačka rose: -7°C
Vlažnost: 93%
Pritisak: 1025 hPa
Pregled: Mist
Oblaci: Partly Cloudy
Vidljivost: 1 km
2020/01/25 07:00 LYBT 250700Z 14002KT 1200 R12/1600D R30/1500N BR NSC M06/M07 Q1025 NOSIG
LYVR - Vršac, Srbija
Ažurirano: 25/01/2020 08:00
Vedro
Vedro
 Pravac vetra varies
Vetar: varies 4 km/h
Temperatura: -6°C
Tačka rose: -7°C
Vlažnost: 93%
Pritisak: 1025 hPa
Pregled: Vedro
Vidljivost: greater than 10 km
2020/01/25 07:00 LYVR 250700Z VRB02KT CAVOK M06/M07 Q1025 NOSIG
 
LYKV - Lađevci, Srbija
Ažurirano: 25/01/2020 08:00
Mist, Delimično oblačno
Mist, Delimično oblačno
 Pravac vetra calm
Vetar: Tišina
Temperatura: -6°C
Tačka rose: -6°C
Vlažnost: 100%
Pritisak: 1026 hPa
Pregled: Mist
Oblaci: Partly Cloudy
Vidljivost: 3 km
2020/01/25 07:00 LYKV 250700Z 00000KT 3000 BR NSC M06/M06 Q1026 NOSIG
LYNI - Niš, Srbija
Ažurirano: 25/01/2020 08:00
Partly Cloudy
Partly Cloudy
 Pravac vetra IJI
Vetar: IJI 7 km/h
Temperatura: -2°C
Osećaj hladnoće: -6°C
Tačka rose: -6°C
Vlažnost: 74%
Pritisak: 1027 hPa
Oblaci: Partly Cloudy
Vidljivost: 8 km
2020/01/25 07:00 LYNI 250700Z 12004KT 8000 NSC M02/M06 Q1027 NOSIG
BKPR - Priština, Srbija
Ažurirano: 25/01/2020 08:00
Mist, Delimično oblačno
Mist, Delimično oblačno
 Pravac vetra varies
Vetar: varies 4 km/h
Temperatura: -5°C
Tačka rose: -8°C
Vlažnost: 80%
Pritisak: 1027 hPa
Pregled: Mist
Oblaci: Partly Cloudy
Vidljivost: 2 km
2020/01/25 07:00 BKPR 250700Z VRB02KT 2000 BR NSC M05/M08 Q1027 NOSIG RMK 17010095
 
LHPP - Pecs / Pogany, Hungary
Ažurirano: 25/01/2020 07:45
Mist, Delimično oblačno
Mist, Delimično oblačno
 Pravac vetra SSZ
Vetar: SSZ 2 km/h
Temperatura: -5°C
Tačka rose: -5°C
Vlažnost: 100%
Pritisak: 1023 hPa
Pregled: Mist
Oblaci: Partly Cloudy
Vidljivost: 3 km
2020/01/25 06:45 LHPP 250645Z 34001KT 2500 BR NSC M05/M05 Q1023
LHUD - Szeged, Hungary
Ažurirano: 04/07/2019 01:45
NOT Current
Vedro
Vedro
 Pravac vetra S
Vetar: S 7 km/h
Temperatura: 18°C
Tačka rose: 13°C
Vlažnost: 73%
Pritisak: 1019 hPa
Pregled: Vedro
Vidljivost: greater than 10 km
2019/07/03 23:45 LHUD 032345Z 35004KT CAVOK 18/13 Q1019
LRTR - Timisoara, Romania
Ažurirano: 25/01/2020 08:00
Vedro
Vedro
 Pravac vetra IJI
Vetar: IJI 15 km/h
Temperatura: -3°C
Osećaj hladnoće: -8°C
Tačka rose: -5°C
Vlažnost: 86%
Pritisak: 1025 hPa
Pregled: Vedro
Vidljivost: greater than 10 km
2020/01/25 07:00 LRTR 250700Z 12008KT CAVOK M03/M05 Q1025 NOSIG
 
LRCV - Craiova, Romania
Ažurirano: 25/01/2020 08:00
Vedro
Vedro
 Pravac vetra Z
Vetar: Z 17 km/h
Temperatura: -1°C
Osećaj hladnoće: -6°C
Tačka rose: -5°C
Vlažnost: 75%
Pritisak: 1022 hPa
Pregled: Vedro
Vidljivost: greater than 10 km
2020/01/25 07:00 LRCV 250700Z 26009KT CAVOK M01/M05 Q1022
LBSF - Sofia, Bulgaria
Ažurirano: 25/01/2020 08:00
Mist, Delimično oblačno
Mist, Delimično oblačno
 Pravac vetra varies
Vetar: varies 4 km/h
Temperatura: -6°C
Tačka rose: -8°C
Vlažnost: 86%
Pritisak: 1026 hPa
Pregled: Mist
Oblaci: Partly Cloudy
Vidljivost: 5 km
2020/01/25 07:00 LBSF 250700Z VRB02KT 4500 BR NSC M06/M08 Q1026 TEMPO 3000 BR
LWSK - Skoplje, Makedonija
Ažurirano: 25/01/2020 08:00
Partly Cloudy
Partly Cloudy
 Pravac vetra calm
Vetar: Tišina
Temperatura: -6°C
Tačka rose: -7°C
Vlažnost: 93%
Pritisak: 1030 hPa
Oblaci: Partly Cloudy
Vidljivost: 6 km
2020/01/25 07:00 LWSK 250700Z 00000KT 6000 NSC M06/M07 Q1030 NOSIG
 
LYPG - Podgorica, Crna Gora
Ažurirano: 25/01/2020 08:00
Oblačno
Oblačno
 Pravac vetra SI
Vetar: SI 6 km/h
Temperatura: 6°C
Tačka rose: 2°C
Vlažnost: 76%
Pritisak: 1028 hPa
Oblaci: Oblačno
Vidljivost: 8 km
Cloud details: Partly Cloudy 1219 m
Oblačno 2438 m
2020/01/25 07:00 LYPG 250700Z 05003KT 8000 SCT040 OVC080 06/02 Q1028 NOSIG
LQSA - Sarajevo, Bosna i Hercegovina
Ažurirano: 25/01/2020 08:00
Mist, Delimično oblačno
Mist, Delimično oblačno
 Pravac vetra varies
Vetar: varies 4 km/h
Temperatura: -3°C
Tačka rose: -3°C
Vlažnost: 100%
Pritisak: 1025 hPa
Pregled: Mist
Oblaci: Partly Cloudy
Vidljivost: 2 km
2020/01/25 07:00 LQSA 250700Z VRB02KT 2000 R11/1300N BR NSC M03/M03 Q1025 NOSIG
LDOS - Osijek, Hrvatksa
Ažurirano: 25/01/2020 08:00
Mist, Delimično oblačno
Mist, Delimično oblačno
 Pravac vetra calm
Vetar: Tišina
Temperatura: -4°C
Tačka rose: -5°C
Vlažnost: 93%
Pritisak: 1024 hPa
Pregled: Mist
Oblaci: Partly Cloudy
Vidljivost: 2 km
2020/01/25 07:00 LDOS 250700Z 00000KT 2000 BR NSC M04/M05 Q1024